Accueil
METAR-TAF:

METAR-TAF

Aéroports :

Aéroport de Sliač

Banská Bystrica, Slovaquie

latitude: 48-38-17N, longitude: 019-08-03E, altitude: 318 m

METAR: absent

Heure: 01:25 (23:25 UTC)

Prévision

Le bulletin a été fait il y a 3 heures et 55 minutes, à 19:30 UTC
Prévision valable du 26 à 21 UTC au 27 à 06 UTC
Vent 1 kt de direction variable
Visibilité: 0200 m
Nuages fragmentés à une hauteur de 100 ft
brouillard

TAF: LZSL 261930Z 2621/2706 VRB01KT 0200 FG BKN001

Observations et prévisions météorologiques de plus de 4000 aéroports (messages METAR et TAF).

Les stations disponibles sont représentées par des disques jaunes et rouges sur la carte.

Passer la souris dessus pour voir le nom de la station.

Cliquer dessus pour voir les observations et prévisions météorologiques.

Pour changer de carte: cliquez sur les boutons verts avec une croix noire pour zoomer, sur le bouton vert avec un tiret pour effectuer un zoom arrière, ou sur les flèches vertes pour les cartes adjacentes.


METAR-TAF: